Time;durP1;ratioP1;P1;durP2;ratioP2;P2;SDS_P1;SDS_P2;PMS_P1;PMS_P2;Temp;Humidity;BMP_temperature;BMP_pressure;BME280_temperature;BME280_humidity;BME280_pressure;Samples;Min_cycle;Max_cycle;Signal;HPM_P1;HPM_P2
2023/01/22 00:02:05;;;;;;;;;;;;;;;;;;5033869;28;1670;-41
2023/01/22 00:04:32;;;;;;;;;;;;;;;;;;5033870;28;1885;-42
2023/01/22 00:06:59;;;;;;;;;;;;;;;;;;5033797;28;1478;-41
2023/01/22 00:09:26;;;;;;;;;;;;;;;;;;5033740;28;2285;-40
2023/01/22 00:11:53;;;;;;;;;;;;;;;;;;5033534;28;1847;-41
2023/01/22 00:14:20;;;;;;;;;;;;;;;;;;5033342;28;1918;-42
2023/01/22 00:16:48;;;;;;;;;;;;;;;;;;5033931;28;1711;-42
2023/01/22 00:19:15;;;;;;;;;;;;;;;;;;5033854;28;1709;-40
2023/01/22 00:21:42;;;;;;;;;;;;;;;;;;5033473;28;2009;-42
2023/01/22 00:24:10;;;;;;;;;;;;;;;;;;5033361;28;1851;-41
2023/01/22 00:26:37;;;;;;;;;;;;;;;;;;5036276;28;1871;-42
2023/01/22 00:29:04;;;;;;;;;;;;;;;;;;5053325;28;2164;-43
2023/01/22 00:31:31;;;;;;;;;;;;;;;;;;5051822;28;1854;-42
2023/01/22 00:33:58;;;;;;;;;;;;;;;;;;5053030;28;1913;-43
2023/01/22 00:36:25;;;;;;;;;;;;;;;;;;5052326;28;1757;-41
2023/01/22 00:38:53;;;;;;;;;;;;;;;;;;5051725;28;2186;-42
2023/01/22 00:41:20;;;;;;;;;;;;;;;;;;5053282;28;1851;-40
2023/01/22 00:43:47;;;;;;;;;;;;;;;;;;5053332;28;1761;-43
2023/01/22 00:46:17;;;;;;;;;;;;;;;;;;5053165;28;1995;-43
2023/01/22 00:48:44;;;;;;;;;;;;;;;;;;5052870;28;2480;-42
2023/01/22 00:51:13;;;;;;;;;;;;;;;;;;5052751;28;1815;-43
2023/01/22 00:53:42;;;;;;;;;;;;;;;;;;5052614;28;1905;-41
2023/01/22 00:56:10;;;;;;;;;;;;;;;;;;5052958;28;1840;-43
2023/01/22 00:58:38;;;;;;;;;;;;;;;;;;5051297;28;1802;-40
2023/01/22 01:01:06;;;;;;;;;;;;;;;;;;5052843;28;1770;-43
2023/01/22 01:03:34;;;;;;;;;;;;;;;;;;5051273;28;1896;-40
2023/01/22 01:06:07;;;;;;;;;;;;;;;;;;5051153;28;2043;-42
2023/01/22 01:08:35;;;;;;;;;;;;;;;;;;5051200;28;1187;-42
2023/01/22 01:11:04;;;;;;;;;;;;;;;;;;5052450;28;1963;-44
2023/01/22 01:13:36;;;;;;;;;;;;;;;;;;5051251;28;1909;-41
2023/01/22 01:16:12;;;;;;;;;;;;;;;;;;5067812;28;1830;-42
2023/01/22 01:18:40;;;;;;;;;;;;;;;;;;5052067;28;1772;-41
2023/01/22 01:21:07;;;;;;;;;;;;;;;;;;5052130;28;1904;-44
2023/01/22 01:23:35;;;;;;;;;;;;;;;;;;5052283;28;2016;-42
2023/01/22 01:26:05;;;;;;;;;;;;;;;;;;5050784;28;1761;-42
2023/01/22 01:28:33;;;;;;;;;;;;;;;;;;5052184;28;2097;-42
2023/01/22 01:31:02;;;;;;;;;;;;;;;;;;5052041;28;1407;-42
2023/01/22 01:33:30;;;;;;;;;;;;;;;;;;5051794;28;1908;-42
2023/01/22 01:36:00;;;;;;;;;;;;;;;;;;5034067;28;1674;-41
2023/01/22 01:38:28;;;;;;;;;;;;;;;;;;5034214;28;1954;-42
2023/01/22 01:40:55;;;;;;;;;;;;;;;;;;5051822;28;2281;-42
2023/01/22 01:43:23;;;;;;;;;;;;;;;;;;5051905;28;1962;-42
2023/01/22 01:45:50;;;;;;;;;;;;;;;;;;5052065;28;2297;-43
2023/01/22 01:48:33;;;;;;;;;;;;;;;;;;5051705;28;1798;-43
2023/01/22 01:51:00;;;;;;;;;;;;;;;;;;5051688;28;2596;-41
2023/01/22 01:53:27;;;;;;;;;;;;;;;;;;5051581;28;2077;-42
2023/01/22 01:55:56;;;;;;;;;;;;;;;;;;5033759;28;1433;-39
2023/01/22 01:58:28;;;;;;;;;;;;;;;;;;5051645;28;1902;-42
2023/01/22 02:00:58;;;;;;;;;;;;;;;;;;5051589;28;1589;-40
2023/01/22 02:03:26;;;;;;;;;;;;;;;;;;5051632;28;2286;-40
2023/01/22 02:05:53;;;;;;;;;;;;;;;;;;5051818;28;1720;-41
2023/01/22 02:08:20;;;;;;;;;;;;;;;;;;5051286;28;1739;-41
2023/01/22 02:10:48;;;;;;;;;;;;;;;;;;5033368;28;1906;-45
2023/01/22 02:13:18;;;;;;;;;;;;;;;;;;5033524;28;1912;-41
2023/01/22 02:15:46;;;;;;;;;;;;;;;;;;5051273;28;1856;-42
2023/01/22 02:18:13;;;;;;;;;;;;;;;;;;5033141;28;2022;-43
2023/01/22 02:20:50;;;;;;;;;;;;;;;;;;5051246;28;1988;-40
2023/01/22 02:23:17;;;;;;;;;;;;;;;;;;5051022;28;1817;-42
2023/01/22 02:25:45;;;;;;;;;;;;;;;;;;5050932;28;2153;-42
2023/01/22 02:28:12;;;;;;;;;;;;;;;;;;5034887;28;1887;-43
2023/01/22 02:30:40;;;;;;;;;;;;;;;;;;5013318;28;1686;-42
2023/01/22 02:33:07;;;;;;;;;;;;;;;;;;5013206;28;1977;-41
2023/01/22 02:35:35;;;;;;;;;;;;;;;;;;5013233;28;1956;-42
2023/01/22 02:38:04;;;;;;;;;;;;;;;;;;5031160;28;2043;-43
2023/01/22 02:40:32;;;;;;;;;;;;;;;;;;5013288;28;1805;-44
2023/01/22 02:43:00;;;;;;;;;;;;;;;;;;5031006;28;1491;-41
2023/01/22 02:45:28;;;;;;;;;;;;;;;;;;5013243;28;2009;-40
2023/01/22 02:47:55;;;;;;;;;;;;;;;;;;5031049;28;1679;-44
2023/01/22 02:50:23;;;;;;;;;;;;;;;;;;5013373;28;1696;-42
2023/01/22 02:52:50;;;;;;;;;;;;;;;;;;5013514;28;2034;-42
2023/01/22 02:55:17;;;;;;;;;;;;;;;;;;5018576;28;1906;-43
2023/01/22 02:57:47;;;;;;;;;;;;;;;;;;5013006;28;1679;-42
2023/01/22 03:00:15;;;;;;;;;;;;;;;;;;5033443;28;1467;-42
2023/01/22 03:02:43;;;;;;;;;;;;;;;;;;5033499;28;2152;-42
2023/01/22 03:05:11;;;;;;;;;;;;;;;;;;5017119;28;2019;-42
2023/01/22 03:07:43;;;;;;;;;;;;;;;;;;5034752;28;1780;-43
2023/01/22 03:10:13;;;;;;;;;;;;;;;;;;5033629;28;1470;-42
2023/01/22 03:21:16;;;;;;;;;;;;;;;;;;5049843;28;2347;-42
2023/01/22 03:23:44;;;;;;;;;;;;;;;;;;5033295;28;2089;-41
2023/01/22 03:26:11;;;;;;;;;;;;;;;;;;5033475;28;2013;-42
2023/01/22 03:28:38;;;;;;;;;;;;;;;;;;5052980;28;1797;-43
2023/01/22 03:31:06;;;;;;;;;;;;;;;;;;5051165;28;1308;-43
2023/01/22 03:33:35;;;;;;;;;;;;;;;;;;5032840;28;2323;-43
2023/01/22 03:36:06;;;;;;;;;;;;;;;;;;5034815;28;1825;-40
2023/01/22 03:38:36;;;;;;;;;;;;;;;;;;5033025;28;1543;-41
2023/01/22 03:41:06;;;;;;;;;;;;;;;;;;5034134;28;1710;-41
2023/01/22 03:43:33;;;;;;;;;;;;;;;;;;5034349;28;1510;-42
2023/01/22 03:46:06;;;;;;;;;;;;;;;;;;5034162;28;2250;-43
2023/01/22 03:48:35;;;;;;;;;;;;;;;;;;5032460;28;2179;-43
2023/01/22 03:51:07;;;;;;;;;;;;;;;;;;5032775;28;1670;-40
2023/01/22 03:53:35;;;;;;;;;;;;;;;;;;5032632;28;1934;-42
2023/01/22 03:56:04;;;;;;;;;;;;;;;;;;5034271;28;1980;-41
2023/01/22 03:58:33;;;;;;;;;;;;;;;;;;5032515;28;2028;-42
2023/01/22 04:01:09;;;;;;;;;;;;;;;;;;5032722;28;1685;-43
2023/01/22 04:03:37;;;;;;;;;;;;;;;;;;5032468;28;2050;-42
2023/01/22 04:06:05;;;;;;;;;;;;;;;;;;5033903;28;2088;-42
2023/01/22 04:08:33;;;;;;;;;;;;;;;;;;5032517;28;1713;-42
2023/01/22 04:11:01;;;;;;;;;;;;;;;;;;5031161;28;1785;-41
2023/01/22 04:13:30;;;;;;;;;;;;;;;;;;5033937;28;1779;-43
2023/01/22 04:15:58;;;;;;;;;;;;;;;;;;5032368;28;1902;-43
2023/01/22 04:18:44;;;;;;;;;;;;;;;;;;5033610;28;2037;-43
2023/01/22 04:21:25;;;;;;;;;;;;;;;;;;5032205;28;2034;-44
2023/01/22 04:23:55;;;;;;;;;;;;;;;;;;5031999;28;1807;-43
2023/01/22 04:26:22;;;;;;;;;;;;;;;;;;5043238;28;2092;-41
2023/01/22 04:28:52;;;;;;;;;;;;;;;;;;5052075;28;1510;-42
2023/01/22 04:31:21;;;;;;;;;;;;;;;;;;5051749;28;2027;-41
2023/01/22 04:34:14;;;;;;;;;;;;;;;;;;5050028;28;1980;-44
2023/01/22 04:36:46;;;;;;;;;;;;;;;;;;5051993;28;1660;-44
2023/01/22 04:39:16;;;;;;;;;;;;;;;;;;5051610;28;1448;-41
2023/01/22 04:41:43;;;;;;;;;;;;;;;;;;5050622;28;1821;-42
2023/01/22 04:44:10;;;;;;;;;;;;;;;;;;5051075;28;1889;-41
2023/01/22 04:46:40;;;;;;;;;;;;;;;;;;5051243;28;1833;-42
2023/01/22 04:49:07;;;;;;;;;;;;;;;;;;5050442;28;1843;-42
2023/01/22 04:51:34;;;;;;;;;;;;;;;;;;5053189;28;1748;-43
2023/01/22 04:54:02;;;;;;;;;;;;;;;;;;5051767;28;2084;-40
2023/01/22 04:56:29;;;;;;;;;;;;;;;;;;5051509;28;2268;-42
2023/01/22 04:58:57;;;;;;;;;;;;;;;;;;5051629;28;2157;-41
2023/01/22 05:01:30;;;;;;;;;;;;;;;;;;5051222;28;2328;-43
2023/01/22 05:03:59;;;;;;;;;;;;;;;;;;5051381;28;1645;-41
2023/01/22 05:06:29;;;;;;;;;;;;;;;;;;5035114;28;1976;-43
2023/01/22 05:08:56;;;;;;;;;;;;;;;;;;5051366;28;1871;-42
2023/01/22 05:11:25;;;;;;;;;;;;;;;;;;5051326;28;2329;-42
2023/01/22 05:13:58;;;;;;;;;;;;;;;;;;5037446;28;1910;-44
2023/01/22 05:16:25;;;;;;;;;;;;;;;;;;5052428;28;1433;-43
2023/01/22 05:18:53;;;;;;;;;;;;;;;;;;5034481;28;2075;-42
2023/01/22 05:21:20;;;;;;;;;;;;;;;;;;5052279;28;1497;-42
2023/01/22 05:23:47;;;;;;;;;;;;;;;;;;5033842;28;2064;-42
2023/01/22 05:26:15;;;;;;;;;;;;;;;;;;5034281;28;1575;-44
2023/01/22 05:28:53;;;;;;;;;;;;;;;;;;5050603;28;2006;-40
2023/01/22 05:31:46;;;;;;;;;;;;;;;;;;5033811;28;2052;-41
2023/01/22 05:34:24;;;;;;;;;;;;;;;;;;5052088;28;2157;-42
2023/01/22 05:36:52;;;;;;;;;;;;;;;;;;5033969;28;2263;-43
2023/01/22 05:39:23;;;;;;;;;;;;;;;;;;5034029;28;2046;-41
2023/01/22 05:41:53;;;;;;;;;;;;;;;;;;5033944;28;1823;-42
2023/01/22 05:44:20;;;;;;;;;;;;;;;;;;5033938;28;2139;-42
2023/01/22 05:46:51;;;;;;;;;;;;;;;;;;5033758;28;1780;-42
2023/01/22 05:49:41;;;;;;;;;;;;;;;;;;5033738;28;1826;-41
2023/01/22 05:52:11;;;;;;;;;;;;;;;;;;5033546;28;1852;-45
2023/01/22 05:54:38;;;;;;;;;;;;;;;;;;5034070;28;1908;-40
2023/01/22 05:57:06;;;;;;;;;;;;;;;;;;5033704;28;1781;-42
2023/01/22 05:59:36;;;;;;;;;;;;;;;;;;5033819;28;2049;-43
2023/01/22 06:02:06;;;;;;;;;;;;;;;;;;5033096;28;1927;-41
2023/01/22 06:04:38;;;;;;;;;;;;;;;;;;5033677;28;2213;-42
2023/01/22 06:07:16;;;;;;;;;;;;;;;;;;5051255;28;1729;-42
2023/01/22 06:09:44;;;;;;;;;;;;;;;;;;5033669;28;1782;-42
2023/01/22 06:12:11;;;;;;;;;;;;;;;;;;5051435;28;1696;-41
2023/01/22 06:14:38;;;;;;;;;;;;;;;;;;5033519;28;1899;-41
2023/01/22 06:17:06;;;;;;;;;;;;;;;;;;5051482;28;1710;-41
2023/01/22 06:19:36;;;;;;;;;;;;;;;;;;5034115;28;1676;-41
2023/01/22 06:22:05;;;;;;;;;;;;;;;;;;5033144;28;1365;-41
2023/01/22 06:24:45;;;;;;;;;;;;;;;;;;5032879;28;2125;-42
2023/01/22 06:27:14;;;;;;;;;;;;;;;;;;5038070;28;2474;-41
2023/01/22 06:29:52;;;;;;;;;;;;;;;;;;5049848;28;2191;-42
2023/01/22 06:32:19;;;;;;;;;;;;;;;;;;5049746;28;1900;-42
2023/01/22 06:34:47;;;;;;;;;;;;;;;;;;5049014;28;2049;-42
2023/01/22 06:37:16;;;;;;;;;;;;;;;;;;5049634;28;1664;-44
2023/01/22 06:39:43;;;;;;;;;;;;;;;;;;5049877;28;1697;-40
2023/01/22 06:42:31;;;;;;;;;;;;;;;;;;5050552;28;1532;-41
2023/01/22 06:44:59;;;;;;;;;;;;;;;;;;5049547;28;1944;-42
2023/01/22 06:47:29;;;;;;;;;;;;;;;;;;5049533;28;1785;-41
2023/01/22 06:49:56;;;;;;;;;;;;;;;;;;5050933;28;2055;-43
2023/01/22 06:52:23;;;;;;;;;;;;;;;;;;5050819;28;1913;-41
2023/01/22 06:54:50;;;;;;;;;;;;;;;;;;5050876;28;1906;-44
2023/01/22 06:57:18;;;;;;;;;;;;;;;;;;5050846;28;2415;-41
2023/01/22 06:59:45;;;;;;;;;;;;;;;;;;5049466;28;1909;-42
2023/01/22 07:02:16;;;;;;;;;;;;;;;;;;5050863;28;1630;-43
2023/01/22 07:04:44;;;;;;;;;;;;;;;;;;5050810;28;1576;-43
2023/01/22 07:07:11;;;;;;;;;;;;;;;;;;5050957;28;1985;-42
2023/01/22 07:09:38;;;;;;;;;;;;;;;;;;5050708;28;1854;-42
2023/01/22 07:12:05;;;;;;;;;;;;;;;;;;5050584;28;1875;-43
2023/01/22 07:14:32;;;;;;;;;;;;;;;;;;5050444;28;1973;-44
2023/01/22 07:17:03;;;;;;;;;;;;;;;;;;5050555;28;1882;-42
2023/01/22 07:19:30;;;;;;;;;;;;;;;;;;5048693;28;9867;-42
2023/01/22 07:21:58;;;;;;;;;;;;;;;;;;5050421;28;2006;-40
2023/01/22 07:24:25;;;;;;;;;;;;;;;;;;5050688;28;1399;-43
2023/01/22 07:26:52;;;;;;;;;;;;;;;;;;5050607;28;1614;-45
2023/01/22 07:29:19;;;;;;;;;;;;;;;;;;5050270;28;1618;-43
2023/01/22 07:31:46;;;;;;;;;;;;;;;;;;5050312;28;1408;-45
2023/01/22 07:34:15;;;;;;;;;;;;;;;;;;5050349;28;1718;-43
2023/01/22 07:36:44;;;;;;;;;;;;;;;;;;5050625;28;2167;-42
2023/01/22 07:39:13;;;;;;;;;;;;;;;;;;5050800;28;1712;-42
2023/01/22 07:41:41;;;;;;;;;;;;;;;;;;5050405;28;1798;-43
2023/01/22 07:44:11;;;;;;;;;;;;;;;;;;5050379;28;1449;-44
2023/01/22 07:46:39;;;;;;;;;;;;;;;;;;5053227;28;1867;-42
2023/01/22 07:49:07;;;;;;;;;;;;;;;;;;5053475;28;2007;-43
2023/01/22 07:51:35;;;;;;;;;;;;;;;;;;5053806;28;1226;-42
2023/01/22 07:54:02;;;;;;;;;;;;;;;;;;5053704;28;1857;-42
2023/01/22 07:56:29;;;;;;;;;;;;;;;;;;5053589;28;1987;-43
2023/01/22 07:58:56;;;;;;;;;;;;;;;;;;5053888;28;2042;-47
2023/01/22 08:01:23;;;;;;;;;;;;;;;;;;5053964;28;2013;-42
2023/01/22 08:03:50;;;;;;;;;;;;;;;;;;5053837;28;1533;-42
2023/01/22 08:06:20;;;;;;;;;;;;;;;;;;5053568;28;1986;-41
2023/01/22 08:08:49;;;;;;;;;;;;;;;;;;5053816;28;1734;-42
2023/01/22 08:11:16;;;;;;;;;;;;;;;;;;5053464;28;1850;-44
2023/01/22 08:13:44;;;;;;;;;;;;;;;;;;5054089;28;1915;-41
2023/01/22 08:16:11;;;;;;;;;;;;;;;;;;5053747;28;1983;-43
2023/01/22 08:18:38;;;;;;;;;;;;;;;;;;5053573;28;1860;-44
2023/01/22 08:21:05;;;;;;;;;;;;;;;;;;5053543;28;1986;-43
2023/01/22 08:23:32;;;;;;;;;;;;;;;;;;5053256;28;1783;-43
2023/01/22 08:26:00;;;;;;;;;;;;;;;;;;5040450;28;2300;-40
2023/01/22 08:28:27;;;;;;;;;;;;;;;;;;5051561;28;1548;-43
2023/01/22 08:30:58;;;;;;;;;;;;;;;;;;5053381;28;2107;-44
2023/01/22 08:33:26;;;;;;;;;;;;;;;;;;5053223;28;2116;-42
2023/01/22 08:35:53;;;;;;;;;;;;;;;;;;5053043;28;1910;-42
2023/01/22 08:38:20;;;;;;;;;;;;;;;;;;5053144;28;2119;-42
2023/01/22 08:40:51;;;;;;;;;;;;;;;;;;5053398;28;1856;-44
2023/01/22 08:43:18;;;;;;;;;;;;;;;;;;5053211;28;2005;-43
2023/01/22 08:45:48;;;;;;;;;;;;;;;;;;5053088;28;1580;-40
2023/01/22 08:48:16;;;;;;;;;;;;;;;;;;5053051;28;2061;-44
2023/01/22 08:50:43;;;;;;;;;;;;;;;;;;5052868;28;1731;-40
2023/01/22 08:53:10;;;;;;;;;;;;;;;;;;5053102;28;1695;-42
2023/01/22 08:55:37;;;;;;;;;;;;;;;;;;5052700;28;1975;-42
2023/01/22 08:58:05;;;;;;;;;;;;;;;;;;5051093;28;1843;-42
2023/01/22 09:00:32;;;;;;;;;;;;;;;;;;5052694;28;2063;-43
2023/01/22 09:03:03;;;;;;;;;;;;;;;;;;5052664;28;1523;-42
2023/01/22 09:05:33;;;;;;;;;;;;;;;;;;5052392;28;1893;-42
2023/01/22 09:08:01;;;;;;;;;;;;;;;;;;5034986;28;1809;-42
2023/01/22 09:10:28;;;;;;;;;;;;;;;;;;5052690;28;1468;-41
2023/01/22 09:13:00;;;;;;;;;;;;;;;;;;5052556;28;2309;-41
2023/01/22 09:15:27;;;;;;;;;;;;;;;;;;5052251;28;1910;-43
2023/01/22 09:17:54;;;;;;;;;;;;;;;;;;5052231;28;2140;-43
2023/01/22 09:20:22;;;;;;;;;;;;;;;;;;5052573;28;1882;-42
2023/01/22 09:22:49;;;;;;;;;;;;;;;;;;5052515;28;1440;-42
2023/01/22 09:25:16;;;;;;;;;;;;;;;;;;5052061;28;1863;-42
2023/01/22 09:27:43;;;;;;;;;;;;;;;;;;5050967;28;2085;-40
2023/01/22 09:30:13;;;;;;;;;;;;;;;;;;5051685;28;1285;-42
2023/01/22 09:32:40;;;;;;;;;;;;;;;;;;5051631;28;2040;-42
2023/01/22 09:35:07;;;;;;;;;;;;;;;;;;5050928;28;2173;-37
2023/01/22 09:37:34;;;;;;;;;;;;;;;;;;5052180;28;1233;-38
2023/01/22 09:40:02;;;;;;;;;;;;;;;;;;5051851;28;1945;-38
2023/01/22 09:42:31;;;;;;;;;;;;;;;;;;5051973;28;1467;-38
2023/01/22 09:45:08;;;;;;;;;;;;;;;;;;5033765;28;1595;-46
2023/01/22 09:47:39;;;;;;;;;;;;;;;;;;5050356;28;1671;-41
2023/01/22 09:50:15;;;;;;;;;;;;;;;;;;5051424;28;1892;-42
2023/01/22 09:52:43;;;;;;;;;;;;;;;;;;5032529;28;1896;-40
2023/01/22 09:55:21;;;;;;;;;;;;;;;;;;5051537;28;1912;-40
2023/01/22 09:57:50;;;;;;;;;;;;;;;;;;5051559;28;1860;-42
2023/01/22 10:00:19;;;;;;;;;;;;;;;;;;5051360;28;2146;-42
2023/01/22 10:02:50;;;;;;;;;;;;;;;;;;5051534;28;1873;-43
2023/01/22 10:05:26;;;;;;;;;;;;;;;;;;5051476;28;1829;-42
2023/01/22 10:07:59;;;;;;;;;;;;;;;;;;5051207;28;1793;-41
2023/01/22 10:10:27;;;;;;;;;;;;;;;;;;5051294;28;2049;-42
2023/01/22 10:13:09;;;;;;;;;;;;;;;;;;5051441;28;1970;-45
2023/01/22 10:15:37;;;;;;;;;;;;;;;;;;5031771;28;2152;-43
2023/01/22 10:18:20;;;;;;;;;;;;;;;;;;5049956;28;1863;-44
2023/01/22 10:20:48;;;;;;;;;;;;;;;;;;5033620;28;1306;-43
2023/01/22 10:23:19;;;;;;;;;;;;;;;;;;5051135;28;1669;-40
2023/01/22 10:25:47;;;;;;;;;;;;;;;;;;5051191;28;1732;-43
2023/01/22 10:28:14;;;;;;;;;;;;;;;;;;5050876;28;1575;-41
2023/01/22 10:30:46;;;;;;;;;;;;;;;;;;5051034;28;2018;-41
2023/01/22 10:33:17;;;;;;;;;;;;;;;;;;5050993;28;1278;-42
2023/01/22 10:35:49;;;;;;;;;;;;;;;;;;5050923;28;1900;-41
2023/01/22 10:38:23;;;;;;;;;;;;;;;;;;5051034;28;1749;-44
2023/01/22 10:40:52;;;;;;;;;;;;;;;;;;5051275;28;1774;-44
2023/01/22 10:43:19;;;;;;;;;;;;;;;;;;5050671;28;1714;-41
2023/01/22 10:45:59;;;;;;;;;;;;;;;;;;5050528;28;2157;-39
2023/01/22 10:48:30;;;;;;;;;;;;;;;;;;5050522;28;1718;-37
2023/01/22 10:51:00;;;;;;;;;;;;;;;;;;5050830;28;1562;-40
2023/01/22 10:53:35;;;;;;;;;;;;;;;;;;5050763;28;2013;-40
2023/01/22 10:56:03;;;;;;;;;;;;;;;;;;5037430;28;1993;-41
2023/01/22 10:58:31;;;;;;;;;;;;;;;;;;5032900;28;1638;-41
2023/01/22 11:01:06;;;;;;;;;;;;;;;;;;5030364;28;1715;-41
2023/01/22 11:03:37;;;;;;;;;;;;;;;;;;5030806;28;1849;-39
2023/01/22 11:06:34;;;;;;;;;;;;;;;;;;5043636;28;2110;-42
2023/01/22 11:09:13;;;;;;;;;;;;;;;;;;5017674;28;1438;-41
2023/01/22 11:11:44;;;;;;;;;;;;;;;;;;5030592;28;2042;-39
2023/01/22 11:14:18;;;;;;;;;;;;;;;;;;5039361;28;1988;-40
2023/01/22 11:16:46;;;;;;;;;;;;;;;;;;5050329;28;1990;-39
2023/01/22 11:19:15;;;;;;;;;;;;;;;;;;5050288;28;1697;-44
2023/01/22 11:21:54;;;;;;;;;;;;;;;;;;5053758;28;1561;-42
2023/01/22 11:24:24;;;;;;;;;;;;;;;;;;5054497;28;1446;-40
2023/01/22 11:27:00;;;;;;;;;;;;;;;;;;5054047;28;2196;-42
2023/01/22 11:29:43;;;;;;;;;;;;;;;;;;5054660;28;1546;-42
2023/01/22 11:32:26;;;;;;;;;;;;;;;;;;5054338;28;1928;-42
2023/01/22 11:34:57;;;;;;;;;;;;;;;;;;5053192;28;1634;-42
2023/01/22 11:37:27;;;;;;;;;;;;;;;;;;5054097;28;1906;-42
2023/01/22 11:40:08;;;;;;;;;;;;;;;;;;5054601;28;1277;-42
2023/01/22 11:42:43;;;;;;;;;;;;;;;;;;5040082;28;2048;-42
2023/01/22 11:45:19;;;;;;;;;;;;;;;;;;5034107;28;1472;-41
2023/01/22 11:47:46;;;;;;;;;;;;;;;;;;5033888;28;1558;-40
2023/01/22 11:50:20;;;;;;;;;;;;;;;;;;5034070;28;1904;-42
2023/01/22 11:52:57;;;;;;;;;;;;;;;;;;5033840;28;1902;-43
2023/01/22 11:55:43;;;;;;;;;;;;;;;;;;5034068;28;1609;-42
2023/01/22 11:58:13;;;;;;;;;;;;;;;;;;5033432;28;1816;-43
2023/01/22 12:00:43;;;;;;;;;;;;;;;;;;5033840;28;2036;-45
2023/01/22 12:03:11;;;;;;;;;;;;;;;;;;5033888;28;2023;-44
2023/01/22 12:05:57;;;;;;;;;;;;;;;;;;5033950;28;2160;-43
2023/01/22 12:08:39;;;;;;;;;;;;;;;;;;5033631;28;1593;-44
2023/01/22 12:11:27;;;;;;;;;;;;;;;;;;5033701;28;1951;-41
2023/01/22 12:13:57;;;;;;;;;;;;;;;;;;5040828;28;1830;-44
2023/01/22 12:16:43;;;;;;;;;;;;;;;;;;5053740;28;2151;-41
2023/01/22 12:19:10;;;;;;;;;;;;;;;;;;5053316;28;1931;-41
2023/01/22 12:22:03;;;;;;;;;;;;;;;;;;5053561;28;1860;-42
2023/01/22 12:24:40;;;;;;;;;;;;;;;;;;5049717;28;1946;-42
2023/01/22 12:27:17;;;;;;;;;;;;;;;;;;5053326;28;1857;-43
2023/01/22 12:29:48;;;;;;;;;;;;;;;;;;5053253;28;2242;-41
2023/01/22 12:32:17;;;;;;;;;;;;;;;;;;5051955;28;1353;-43
2023/01/22 12:34:59;;;;;;;;;;;;;;;;;;5053206;28;1954;-43
2023/01/22 12:37:34;;;;;;;;;;;;;;;;;;5053223;28;1902;-42
2023/01/22 12:40:15;;;;;;;;;;;;;;;;;;5053404;28;1622;-39
2023/01/22 12:42:46;;;;;;;;;;;;;;;;;;5052954;28;1711;-42
2023/01/22 12:45:24;;;;;;;;;;;;;;;;;;5053038;28;1449;-42
2023/01/22 12:48:03;;;;;;;;;;;;;;;;;;5052992;28;1756;-43
2023/01/22 12:50:31;;;;;;;;;;;;;;;;;;5052964;28;1936;-48
2023/01/22 12:53:02;;;;;;;;;;;;;;;;;;5053067;28;2100;-42
2023/01/22 12:55:39;;;;;;;;;;;;;;;;;;5053017;28;1956;-42
2023/01/22 12:58:25;;;;;;;;;;;;;;;;;;5052800;28;1911;-43
2023/01/22 13:01:04;;;;;;;;;;;;;;;;;;5052435;28;1784;-42
2023/01/22 13:03:31;;;;;;;;;;;;;;;;;;5052745;28;1635;-40
2023/01/22 13:06:00;;;;;;;;;;;;;;;;;;5052667;28;1976;-42
2023/01/22 13:08:35;;;;;;;;;;;;;;;;;;5052605;28;1593;-42
2023/01/22 13:11:07;;;;;;;;;;;;;;;;;;5052208;28;1818;-39
2023/01/22 13:13:38;;;;;;;;;;;;;;;;;;5052946;28;2045;-42
2023/01/22 13:16:14;;;;;;;;;;;;;;;;;;5052360;28;1949;-41
2023/01/22 13:18:52;;;;;;;;;;;;;;;;;;5052154;28;1836;-43
2023/01/22 13:21:24;;;;;;;;;;;;;;;;;;5052140;28;1981;-39
2023/01/22 13:23:51;;;;;;;;;;;;;;;;;;5052354;28;1654;-42
2023/01/22 13:26:20;;;;;;;;;;;;;;;;;;5052329;28;2003;-42
2023/01/22 13:28:58;;;;;;;;;;;;;;;;;;5052164;28;1758;-40
2023/01/22 13:31:25;;;;;;;;;;;;;;;;;;5051951;28;1806;-42
2023/01/22 13:33:56;;;;;;;;;;;;;;;;;;5052009;28;1804;-39
2023/01/22 13:36:23;;;;;;;;;;;;;;;;;;5052173;28;1891;-40
2023/01/22 13:38:51;;;;;;;;;;;;;;;;;;5051976;28;1906;-44
2023/01/22 13:41:35;;;;;;;;;;;;;;;;;;5051995;28;1317;-41
2023/01/22 13:44:16;;;;;;;;;;;;;;;;;;5051626;28;1916;-41
2023/01/22 13:46:43;;;;;;;;;;;;;;;;;;5051855;28;1299;-44
2023/01/22 13:49:30;;;;;;;;;;;;;;;;;;5052041;28;1842;-42
2023/01/22 13:52:05;;;;;;;;;;;;;;;;;;5052046;28;2177;-42
2023/01/22 13:54:41;;;;;;;;;;;;;;;;;;5052034;28;1847;-42
2023/01/22 13:57:14;;;;;;;;;;;;;;;;;;5051668;28;1934;-43
2023/01/22 13:59:51;;;;;;;;;;;;;;;;;;5051821;28;1607;-43
2023/01/22 14:02:18;;;;;;;;;;;;;;;;;;5051497;28;1773;-42
2023/01/22 14:04:46;;;;;;;;;;;;;;;;;;5051648;28;2120;-42
2023/01/22 14:07:22;;;;;;;;;;;;;;;;;;5051581;28;1282;-41
2023/01/22 14:09:49;;;;;;;;;;;;;;;;;;5051452;28;1530;-41
2023/01/22 14:12:18;;;;;;;;;;;;;;;;;;5051570;28;1906;-41
2023/01/22 14:14:46;;;;;;;;;;;;;;;;;;5051304;28;2015;-45
2023/01/22 14:17:27;;;;;;;;;;;;;;;;;;5051450;28;2257;-42
2023/01/22 14:19:55;;;;;;;;;;;;;;;;;;5051036;28;2020;-42
2023/01/22 14:22:22;;;;;;;;;;;;;;;;;;5051107;28;1804;-44
2023/01/22 14:24:51;;;;;;;;;;;;;;;;;;5051245;28;1686;-45
2023/01/22 14:27:24;;;;;;;;;;;;;;;;;;5051210;28;1685;-41
2023/01/22 14:29:53;;;;;;;;;;;;;;;;;;5051188;28;1834;-43
2023/01/22 14:32:20;;;;;;;;;;;;;;;;;;5050932;28;1879;-43
2023/01/22 14:34:47;;;;;;;;;;;;;;;;;;5051428;28;1523;-42
2023/01/22 14:37:15;;;;;;;;;;;;;;;;;;5051123;28;1984;-44
2023/01/22 14:39:42;;;;;;;;;;;;;;;;;;5051189;28;1818;-43
2023/01/22 14:42:09;;;;;;;;;;;;;;;;;;5051236;28;1745;-43
2023/01/22 14:44:36;;;;;;;;;;;;;;;;;;5050956;28;1862;-41
2023/01/22 14:47:04;;;;;;;;;;;;;;;;;;5051064;28;1792;-44
2023/01/22 14:49:31;;;;;;;;;;;;;;;;;;5051240;28;1334;-43
2023/01/22 14:51:59;;;;;;;;;;;;;;;;;;5050916;28;1677;-43
2023/01/22 14:54:26;;;;;;;;;;;;;;;;;;5050639;28;1774;-41
2023/01/22 14:56:54;;;;;;;;;;;;;;;;;;5050781;28;1911;-43
2023/01/22 14:59:22;;;;;;;;;;;;;;;;;;5050694;28;1614;-43
2023/01/22 15:01:49;;;;;;;;;;;;;;;;;;5050933;28;1500;-42
2023/01/22 15:04:16;;;;;;;;;;;;;;;;;;5050811;28;2117;-42
2023/01/22 15:06:43;;;;;;;;;;;;;;;;;;5050863;28;1589;-42
2023/01/22 15:09:11;;;;;;;;;;;;;;;;;;5050991;28;1440;-42
2023/01/22 15:11:38;;;;;;;;;;;;;;;;;;5050768;28;2005;-45
2023/01/22 15:14:05;;;;;;;;;;;;;;;;;;5050737;28;1457;-41
2023/01/22 15:16:32;;;;;;;;;;;;;;;;;;5050699;28;2204;-43
2023/01/22 15:19:01;;;;;;;;;;;;;;;;;;5050751;28;1982;-44
2023/01/22 15:21:28;;;;;;;;;;;;;;;;;;5050661;28;1490;-42
2023/01/22 15:23:55;;;;;;;;;;;;;;;;;;5049281;28;1736;-42
2023/01/22 15:26:24;;;;;;;;;;;;;;;;;;5050558;28;2160;-43
2023/01/22 15:28:52;;;;;;;;;;;;;;;;;;5050546;28;1857;-44
2023/01/22 15:31:19;;;;;;;;;;;;;;;;;;5050462;28;2059;-41
2023/01/22 15:33:47;;;;;;;;;;;;;;;;;;5050378;28;1746;-41
2023/01/22 15:36:14;;;;;;;;;;;;;;;;;;5050620;28;1812;-42
2023/01/22 15:38:41;;;;;;;;;;;;;;;;;;5050783;28;1894;-42
2023/01/22 15:41:25;;;;;;;;;;;;;;;;;;5050486;28;2126;-42
2023/01/22 15:43:54;;;;;;;;;;;;;;;;;;5050460;28;1419;-43
2023/01/22 15:46:22;;;;;;;;;;;;;;;;;;5032219;28;1871;-41
2023/01/22 15:48:50;;;;;;;;;;;;;;;;;;5050483;28;1565;-42
2023/01/22 15:51:18;;;;;;;;;;;;;;;;;;5050406;28;2150;-43
2023/01/22 15:53:56;;;;;;;;;;;;;;;;;;5050259;28;1647;-39
2023/01/22 15:56:24;;;;;;;;;;;;;;;;;;5050264;28;1916;-43
2023/01/22 15:58:52;;;;;;;;;;;;;;;;;;5050347;28;1996;-43
2023/01/22 16:01:20;;;;;;;;;;;;;;;;;;5050502;28;1671;-41
2023/01/22 16:03:47;;;;;;;;;;;;;;;;;;5050380;28;1283;-44
2023/01/22 16:06:16;;;;;;;;;;;;;;;;;;5051063;28;1843;-40
2023/01/22 16:08:44;;;;;;;;;;;;;;;;;;5054123;28;1861;-42
2023/01/22 16:11:12;;;;;;;;;;;;;;;;;;5053883;28;1977;-42
2023/01/22 16:13:40;;;;;;;;;;;;;;;;;;5053906;28;1177;-40
2023/01/22 16:16:19;;;;;;;;;;;;;;;;;;5053761;28;1984;-42
2023/01/22 16:18:47;;;;;;;;;;;;;;;;;;5053630;28;1914;-43
2023/01/22 16:21:15;;;;;;;;;;;;;;;;;;5053828;28;1681;-43
2023/01/22 16:23:46;;;;;;;;;;;;;;;;;;5053790;28;1965;-42
2023/01/22 16:26:15;;;;;;;;;;;;;;;;;;5053835;28;1467;-42
2023/01/22 16:28:44;;;;;;;;;;;;;;;;;;5033767;28;1689;-43
2023/01/22 16:31:14;;;;;;;;;;;;;;;;;;5034538;28;1889;-43
2023/01/22 16:33:43;;;;;;;;;;;;;;;;;;5053216;28;2086;-42
2023/01/22 16:36:14;;;;;;;;;;;;;;;;;;5053262;28;1326;-43
2023/01/22 16:38:42;;;;;;;;;;;;;;;;;;5053161;28;1973;-44
2023/01/22 16:41:20;;;;;;;;;;;;;;;;;;5053143;28;1484;-42
2023/01/22 16:43:52;;;;;;;;;;;;;;;;;;5052979;28;1706;-43
2023/01/22 16:46:20;;;;;;;;;;;;;;;;;;5035525;28;2155;-42
2023/01/22 16:48:48;;;;;;;;;;;;;;;;;;5053124;28;1556;-45
2023/01/22 16:51:19;;;;;;;;;;;;;;;;;;5053035;28;1955;-41
2023/01/22 16:53:48;;;;;;;;;;;;;;;;;;5053171;28;1535;-42
2023/01/22 16:56:15;;;;;;;;;;;;;;;;;;5052928;28;2246;-42
2023/01/22 16:58:42;;;;;;;;;;;;;;;;;;5052932;28;2066;-43
2023/01/22 17:01:13;;;;;;;;;;;;;;;;;;5052755;28;1819;-42
2023/01/22 17:03:41;;;;;;;;;;;;;;;;;;5052881;28;1586;-42
2023/01/22 17:06:19;;;;;;;;;;;;;;;;;;5052796;28;2063;-42
2023/01/22 17:08:47;;;;;;;;;;;;;;;;;;5052641;28;1677;-43
2023/01/22 17:11:15;;;;;;;;;;;;;;;;;;5052739;28;1929;-44
2023/01/22 17:13:43;;;;;;;;;;;;;;;;;;5052494;28;1953;-45
2023/01/22 17:16:10;;;;;;;;;;;;;;;;;;5052725;28;2061;-40
2023/01/22 17:18:37;;;;;;;;;;;;;;;;;;5051900;28;1902;-41
2023/01/22 17:21:05;;;;;;;;;;;;;;;;;;5052443;28;1849;-41
2023/01/22 17:23:33;;;;;;;;;;;;;;;;;;5052446;28;1607;-43
2023/01/22 17:26:04;;;;;;;;;;;;;;;;;;5052624;28;1857;-43
2023/01/22 17:28:31;;;;;;;;;;;;;;;;;;5033532;28;2140;-43
2023/01/22 17:31:03;;;;;;;;;;;;;;;;;;5014140;28;1658;-41
2023/01/22 17:33:30;;;;;;;;;;;;;;;;;;5031165;28;1599;-40